Cohoctah, Michigan
Current Conditions -  °F | °C
As of 10:35 PM on Friday 24 Oct 2014 (Local Time) from KOZW Reporting Station
Clear Clear  
Wind Chill: 50°   Ceiling: Unl
Heat Index: 50°   Visibility: 7mi
Dew Point: 46°   Wind: 3mph
Humidity: 86%   Direction: 200°SSW
Pressure: 29.96"   Gusts: NA
Location:  42.76°N, 83.95°W
Report Text: KOZW 250235Z AUTO 20003KT 7SM CLR 10/08 A2996 RMK AO2 T01020079
Loading
Personal Weather Stations






























Interactive Weather Map
Tropical Storm Tracking
New forecast layout! Learn more

10-Day Weather Forecast

Advertisements
Track Severe Weather on mobile